sensor_id;sensor_type;location;lat;lon;timestamp;temperature;humidity
9209;DHT22;4639;48.862;9.188;2023-04-07T00:00:29;8.30;99.90
9209;DHT22;4639;48.862;9.188;2023-04-07T00:02:55;8.50;99.90
9209;DHT22;4639;48.862;9.188;2023-04-07T00:05:24;8.20;99.90
9209;DHT22;4639;48.862;9.188;2023-04-07T00:07:50;8.10;99.90
9209;DHT22;4639;48.862;9.188;2023-04-07T00:10:15;8.10;99.90
9209;DHT22;4639;48.862;9.188;2023-04-07T00:12:41;8.20;99.90
9209;DHT22;4639;48.862;9.188;2023-04-07T00:15:07;8.10;99.90
9209;DHT22;4639;48.862;9.188;2023-04-07T00:17:35;8.20;99.90
9209;DHT22;4639;48.862;9.188;2023-04-07T00:20:01;8.20;99.90
9209;DHT22;4639;48.862;9.188;2023-04-07T00:22:26;8.20;99.90
9209;DHT22;4639;48.862;9.188;2023-04-07T00:24:52;8.20;99.90
9209;DHT22;4639;48.862;9.188;2023-04-07T00:27:18;8.10;99.90
9209;DHT22;4639;48.862;9.188;2023-04-07T00:29:44;8.00;99.90
9209;DHT22;4639;48.862;9.188;2023-04-07T00:32:11;8.00;99.90
9209;DHT22;4639;48.862;9.188;2023-04-07T00:34:38;8.00;99.90
9209;DHT22;4639;48.862;9.188;2023-04-07T00:37:07;8.00;99.90
9209;DHT22;4639;48.862;9.188;2023-04-07T00:39:32;7.90;99.90
9209;DHT22;4639;48.862;9.188;2023-04-07T00:41:58;7.90;99.90
9209;DHT22;4639;48.862;9.188;2023-04-07T00:44:23;7.80;99.90
9209;DHT22;4639;48.862;9.188;2023-04-07T00:46:49;7.80;99.90
9209;DHT22;4639;48.862;9.188;2023-04-07T00:49:15;7.80;99.90
9209;DHT22;4639;48.862;9.188;2023-04-07T00:51:42;7.80;99.90
9209;DHT22;4639;48.862;9.188;2023-04-07T00:54:09;7.90;99.90
9209;DHT22;4639;48.862;9.188;2023-04-07T00:56:34;7.80;99.90
9209;DHT22;4639;48.862;9.188;2023-04-07T00:59:03;7.80;99.90
9209;DHT22;4639;48.862;9.188;2023-04-07T01:01:47;7.60;99.90
9209;DHT22;4639;48.862;9.188;2023-04-07T01:04:31;7.60;99.90
9209;DHT22;4639;48.862;9.188;2023-04-07T01:07:04;7.50;99.90
9209;DHT22;4639;48.862;9.188;2023-04-07T01:09:36;7.60;99.90
9209;DHT22;4639;48.862;9.188;2023-04-07T01:14:54;7.70;99.90
9209;DHT22;4639;48.862;9.188;2023-04-07T01:17:24;7.70;99.90
9209;DHT22;4639;48.862;9.188;2023-04-07T01:19:58;7.70;99.90
9209;DHT22;4639;48.862;9.188;2023-04-07T01:22:31;7.70;99.90
9209;DHT22;4639;48.862;9.188;2023-04-07T01:30:12;7.60;99.90
9209;DHT22;4639;48.862;9.188;2023-04-07T01:32:39;7.50;99.90
9209;DHT22;4639;48.862;9.188;2023-04-07T01:35:09;7.50;99.90
9209;DHT22;4639;48.862;9.188;2023-04-07T01:37:36;7.50;99.90
9209;DHT22;4639;48.862;9.188;2023-04-07T01:40:04;7.50;99.90
9209;DHT22;4639;48.862;9.188;2023-04-07T01:42:32;7.50;99.90
9209;DHT22;4639;48.862;9.188;2023-04-07T01:44:59;7.50;99.90
9209;DHT22;4639;48.862;9.188;2023-04-07T01:47:27;7.50;99.90
9209;DHT22;4639;48.862;9.188;2023-04-07T01:49:57;7.60;99.90
9209;DHT22;4639;48.862;9.188;2023-04-07T01:52:23;7.60;99.90
9209;DHT22;4639;48.862;9.188;2023-04-07T01:54:49;7.60;99.90
9209;DHT22;4639;48.862;9.188;2023-04-07T01:57:15;7.50;99.90
9209;DHT22;4639;48.862;9.188;2023-04-07T01:59:41;7.60;99.90
9209;DHT22;4639;48.862;9.188;2023-04-07T02:02:06;7.60;99.90
9209;DHT22;4639;48.862;9.188;2023-04-07T02:04:56;7.70;99.90
9209;DHT22;4639;48.862;9.188;2023-04-07T02:10:16;7.80;99.90
9209;DHT22;4639;48.862;9.188;2023-04-07T02:12:45;7.80;99.90
9209;DHT22;4639;48.862;9.188;2023-04-07T02:15:12;7.80;99.90
9209;DHT22;4639;48.862;9.188;2023-04-07T02:17:53;7.80;99.90
9209;DHT22;4639;48.862;9.188;2023-04-07T02:20:20;7.70;99.90
9209;DHT22;4639;48.862;9.188;2023-04-07T02:22:47;7.70;99.90
9209;DHT22;4639;48.862;9.188;2023-04-07T02:27:52;7.70;99.90
9209;DHT22;4639;48.862;9.188;2023-04-07T02:30:18;7.70;99.90
9209;DHT22;4639;48.862;9.188;2023-04-07T02:32:44;7.70;99.90
9209;DHT22;4639;48.862;9.188;2023-04-07T02:35:14;7.70;99.90
9209;DHT22;4639;48.862;9.188;2023-04-07T02:37:45;7.60;99.90
9209;DHT22;4639;48.862;9.188;2023-04-07T02:40:14;7.70;99.90
9209;DHT22;4639;48.862;9.188;2023-04-07T02:42:40;7.80;99.90
9209;DHT22;4639;48.862;9.188;2023-04-07T02:45:07;7.70;99.90
9209;DHT22;4639;48.862;9.188;2023-04-07T02:47:34;7.70;99.90
9209;DHT22;4639;48.862;9.188;2023-04-07T02:50:00;7.70;99.90
9209;DHT22;4639;48.862;9.188;2023-04-07T02:52:29;7.70;99.90
9209;DHT22;4639;48.862;9.188;2023-04-07T02:54:55;7.80;99.90
9209;DHT22;4639;48.862;9.188;2023-04-07T02:57:20;7.80;99.90
9209;DHT22;4639;48.862;9.188;2023-04-07T02:59:46;7.70;99.90
9209;DHT22;4639;48.862;9.188;2023-04-07T03:02:11;7.70;99.90
9209;DHT22;4639;48.862;9.188;2023-04-07T03:04:37;7.70;99.90
9209;DHT22;4639;48.862;9.188;2023-04-07T03:07:02;7.70;99.90
9209;DHT22;4639;48.862;9.188;2023-04-07T03:09:28;7.80;99.90
9209;DHT22;4639;48.862;9.188;2023-04-07T03:11:54;7.80;99.90
9209;DHT22;4639;48.862;9.188;2023-04-07T03:14:20;7.80;99.90
9209;DHT22;4639;48.862;9.188;2023-04-07T03:16:45;7.80;99.90
9209;DHT22;4639;48.862;9.188;2023-04-07T03:19:13;7.70;99.90
9209;DHT22;4639;48.862;9.188;2023-04-07T03:21:40;7.70;99.90
9209;DHT22;4639;48.862;9.188;2023-04-07T03:24:06;7.70;99.90
9209;DHT22;4639;48.862;9.188;2023-04-07T03:26:32;7.80;99.90
9209;DHT22;4639;48.862;9.188;2023-04-07T03:28:58;7.80;99.90
9209;DHT22;4639;48.862;9.188;2023-04-07T03:31:23;7.80;99.90
9209;DHT22;4639;48.862;9.188;2023-04-07T03:33:49;7.80;99.90
9209;DHT22;4639;48.862;9.188;2023-04-07T03:36:17;7.70;99.90
9209;DHT22;4639;48.862;9.188;2023-04-07T03:38:45;7.70;99.90
9209;DHT22;4639;48.862;9.188;2023-04-07T03:41:11;7.70;99.90
9209;DHT22;4639;48.862;9.188;2023-04-07T03:43:36;7.70;99.90
9209;DHT22;4639;48.862;9.188;2023-04-07T03:46:02;7.70;99.90
9209;DHT22;4639;48.862;9.188;2023-04-07T03:48:27;7.60;99.90
9209;DHT22;4639;48.862;9.188;2023-04-07T03:50:53;7.60;99.90
9209;DHT22;4639;48.862;9.188;2023-04-07T03:53:18;7.70;99.90
9209;DHT22;4639;48.862;9.188;2023-04-07T03:55:44;7.70;99.90
9209;DHT22;4639;48.862;9.188;2023-04-07T03:58:10;7.80;99.90
9209;DHT22;4639;48.862;9.188;2023-04-07T04:00:38;7.70;99.90
9209;DHT22;4639;48.862;9.188;2023-04-07T04:03:04;7.70;99.90
9209;DHT22;4639;48.862;9.188;2023-04-07T04:05:30;7.80;99.90
9209;DHT22;4639;48.862;9.188;2023-04-07T04:07:55;7.80;99.90
9209;DHT22;4639;48.862;9.188;2023-04-07T04:10:21;7.90;99.90
9209;DHT22;4639;48.862;9.188;2023-04-07T04:12:47;7.80;99.90
9209;DHT22;4639;48.862;9.188;2023-04-07T04:15:13;7.80;99.90
9209;DHT22;4639;48.862;9.188;2023-04-07T04:17:39;7.80;99.90
9209;DHT22;4639;48.862;9.188;2023-04-07T04:20:06;7.80;99.90
9209;DHT22;4639;48.862;9.188;2023-04-07T04:22:35;7.80;99.90
9209;DHT22;4639;48.862;9.188;2023-04-07T04:25:03;7.80;99.90
9209;DHT22;4639;48.862;9.188;2023-04-07T04:27:29;7.80;99.90
9209;DHT22;4639;48.862;9.188;2023-04-07T04:29:54;7.80;99.90
9209;DHT22;4639;48.862;9.188;2023-04-07T04:32:20;7.90;99.90
9209;DHT22;4639;48.862;9.188;2023-04-07T04:34:45;8.00;99.90
9209;DHT22;4639;48.862;9.188;2023-04-07T04:37:11;8.00;99.90
9209;DHT22;4639;48.862;9.188;2023-04-07T04:39:37;8.00;99.90
9209;DHT22;4639;48.862;9.188;2023-04-07T04:42:03;8.10;99.90
9209;DHT22;4639;48.862;9.188;2023-04-07T04:44:29;8.10;99.90
9209;DHT22;4639;48.862;9.188;2023-04-07T04:46:55;8.10;99.90
9209;DHT22;4639;48.862;9.188;2023-04-07T04:49:21;8.10;99.90
9209;DHT22;4639;48.862;9.188;2023-04-07T04:51:47;8.10;99.90
9209;DHT22;4639;48.862;9.188;2023-04-07T04:54:12;8.00;99.90
9209;DHT22;4639;48.862;9.188;2023-04-07T04:56:38;8.00;99.90
9209;DHT22;4639;48.862;9.188;2023-04-07T04:59:04;8.00;99.90
9209;DHT22;4639;48.862;9.188;2023-04-07T05:01:30;8.10;99.90
9209;DHT22;4639;48.862;9.188;2023-04-07T05:03:56;8.10;99.90
9209;DHT22;4639;48.862;9.188;2023-04-07T05:06:24;8.20;99.90
9209;DHT22;4639;48.862;9.188;2023-04-07T05:08:52;8.20;99.90
9209;DHT22;4639;48.862;9.188;2023-04-07T05:11:17;8.20;99.90
9209;DHT22;4639;48.862;9.188;2023-04-07T05:13:43;8.20;99.90
9209;DHT22;4639;48.862;9.188;2023-04-07T05:16:08;8.20;99.90
9209;DHT22;4639;48.862;9.188;2023-04-07T05:18:34;8.20;99.90
9209;DHT22;4639;48.862;9.188;2023-04-07T05:21:02;8.20;99.90
9209;DHT22;4639;48.862;9.188;2023-04-07T05:23:28;8.30;99.90
9209;DHT22;4639;48.862;9.188;2023-04-07T05:25:53;8.30;99.90
9209;DHT22;4639;48.862;9.188;2023-04-07T05:28:19;8.40;99.90
9209;DHT22;4639;48.862;9.188;2023-04-07T05:30:45;8.30;99.90
9209;DHT22;4639;48.862;9.188;2023-04-07T05:33:10;8.30;99.90
9209;DHT22;4639;48.862;9.188;2023-04-07T05:35:36;8.30;99.90
9209;DHT22;4639;48.862;9.188;2023-04-07T05:38:02;8.30;99.90
9209;DHT22;4639;48.862;9.188;2023-04-07T05:40:27;8.30;99.90
9209;DHT22;4639;48.862;9.188;2023-04-07T05:42:57;8.30;99.90
9209;DHT22;4639;48.862;9.188;2023-04-07T05:45:26;8.40;99.90
9209;DHT22;4639;48.862;9.188;2023-04-07T05:47:51;8.40;99.90
9209;DHT22;4639;48.862;9.188;2023-04-07T05:50:17;8.40;99.90
9209;DHT22;4639;48.862;9.188;2023-04-07T05:52:43;8.30;99.90
9209;DHT22;4639;48.862;9.188;2023-04-07T05:55:09;8.20;99.90
9209;DHT22;4639;48.862;9.188;2023-04-07T05:57:34;8.20;99.90
9209;DHT22;4639;48.862;9.188;2023-04-07T06:00:00;8.20;99.90
9209;DHT22;4639;48.862;9.188;2023-04-07T06:02:25;8.10;99.90
9209;DHT22;4639;48.862;9.188;2023-04-07T06:04:51;8.10;99.90
9209;DHT22;4639;48.862;9.188;2023-04-07T06:07:17;8.10;99.90
9209;DHT22;4639;48.862;9.188;2023-04-07T06:09:45;8.20;99.90
9209;DHT22;4639;48.862;9.188;2023-04-07T06:12:11;8.20;99.90
9209;DHT22;4639;48.862;9.188;2023-04-07T06:14:37;8.20;99.90
9209;DHT22;4639;48.862;9.188;2023-04-07T06:17:03;8.20;99.90
9209;DHT22;4639;48.862;9.188;2023-04-07T06:19:28;8.20;99.90
9209;DHT22;4639;48.862;9.188;2023-04-07T06:21:54;8.30;99.90
9209;DHT22;4639;48.862;9.188;2023-04-07T06:24:19;8.30;99.90
9209;DHT22;4639;48.862;9.188;2023-04-07T06:26:47;8.40;99.90
9209;DHT22;4639;48.862;9.188;2023-04-07T06:29:13;8.40;99.90
9209;DHT22;4639;48.862;9.188;2023-04-07T06:31:42;8.50;99.90
9209;DHT22;4639;48.862;9.188;2023-04-07T06:34:07;8.50;99.90
9209;DHT22;4639;48.862;9.188;2023-04-07T06:36:33;8.50;99.90
9209;DHT22;4639;48.862;9.188;2023-04-07T06:38:59;8.70;99.90
9209;DHT22;4639;48.862;9.188;2023-04-07T06:41:25;8.70;99.90
9209;DHT22;4639;48.862;9.188;2023-04-07T06:43:50;8.70;99.90
9209;DHT22;4639;48.862;9.188;2023-04-07T06:46:17;8.60;99.90
9209;DHT22;4639;48.862;9.188;2023-04-07T06:48:43;8.50;99.90
9209;DHT22;4639;48.862;9.188;2023-04-07T06:51:08;8.50;99.90
9209;DHT22;4639;48.862;9.188;2023-04-07T06:53:34;8.50;99.90
9209;DHT22;4639;48.862;9.188;2023-04-07T06:56:04;8.50;99.90
9209;DHT22;4639;48.862;9.188;2023-04-07T06:58:30;8.60;99.90
9209;DHT22;4639;48.862;9.188;2023-04-07T07:00:56;8.50;99.90
9209;DHT22;4639;48.862;9.188;2023-04-07T07:03:22;8.50;99.90
9209;DHT22;4639;48.862;9.188;2023-04-07T07:05:47;8.60;99.90
9209;DHT22;4639;48.862;9.188;2023-04-07T07:08:13;8.60;99.90
9209;DHT22;4639;48.862;9.188;2023-04-07T07:10:38;8.70;99.90
9209;DHT22;4639;48.862;9.188;2023-04-07T07:13:04;8.70;99.90
9209;DHT22;4639;48.862;9.188;2023-04-07T07:15:29;8.60;99.90
9209;DHT22;4639;48.862;9.188;2023-04-07T07:17:55;8.50;99.90
9209;DHT22;4639;48.862;9.188;2023-04-07T07:20:20;8.50;99.90
9209;DHT22;4639;48.862;9.188;2023-04-07T07:22:48;8.50;99.90
9209;DHT22;4639;48.862;9.188;2023-04-07T07:25:13;8.60;99.90
9209;DHT22;4639;48.862;9.188;2023-04-07T07:27:39;8.60;99.90
9209;DHT22;4639;48.862;9.188;2023-04-07T07:30:05;8.70;99.90
9209;DHT22;4639;48.862;9.188;2023-04-07T07:32:31;8.90;99.90
9209;DHT22;4639;48.862;9.188;2023-04-07T07:34:57;9.20;99.90
9209;DHT22;4639;48.862;9.188;2023-04-07T07:37:23;9.70;99.90
9209;DHT22;4639;48.862;9.188;2023-04-07T07:39:48;10.20;99.90
9209;DHT22;4639;48.862;9.188;2023-04-07T07:42:14;10.60;99.90
9209;DHT22;4639;48.862;9.188;2023-04-07T07:44:40;10.90;99.90
9209;DHT22;4639;48.862;9.188;2023-04-07T07:47:05;11.30;99.90
9209;DHT22;4639;48.862;9.188;2023-04-07T07:49:31;11.70;99.90
9209;DHT22;4639;48.862;9.188;2023-04-07T07:51:56;12.00;99.90
9209;DHT22;4639;48.862;9.188;2023-04-07T07:54:24;12.10;99.90
9209;DHT22;4639;48.862;9.188;2023-04-07T07:56:49;11.90;99.90
9209;DHT22;4639;48.862;9.188;2023-04-07T07:59:16;11.90;99.90
9209;DHT22;4639;48.862;9.188;2023-04-07T08:01:41;11.80;99.90
9209;DHT22;4639;48.862;9.188;2023-04-07T08:04:07;11.60;99.90
9209;DHT22;4639;48.862;9.188;2023-04-07T08:06:36;11.50;99.90
9209;DHT22;4639;48.862;9.188;2023-04-07T08:09:02;11.40;99.90
9209;DHT22;4639;48.862;9.188;2023-04-07T08:11:27;11.60;99.90
9209;DHT22;4639;48.862;9.188;2023-04-07T08:13:53;11.70;99.90
9209;DHT22;4639;48.862;9.188;2023-04-07T08:16:20;11.90;99.90
9209;DHT22;4639;48.862;9.188;2023-04-07T08:18:46;11.90;99.90
9209;DHT22;4639;48.862;9.188;2023-04-07T08:21:12;11.60;99.90
9209;DHT22;4639;48.862;9.188;2023-04-07T08:23:38;11.50;99.90
9209;DHT22;4639;48.862;9.188;2023-04-07T08:26:03;11.50;99.90
9209;DHT22;4639;48.862;9.188;2023-04-07T08:28:29;11.50;99.90
9209;DHT22;4639;48.862;9.188;2023-04-07T08:30:55;11.60;99.90
9209;DHT22;4639;48.862;9.188;2023-04-07T08:33:20;11.90;99.90
9209;DHT22;4639;48.862;9.188;2023-04-07T08:35:46;12.20;99.90
9209;DHT22;4639;48.862;9.188;2023-04-07T08:38:11;12.50;99.90
9209;DHT22;4639;48.862;9.188;2023-04-07T08:40:37;12.50;99.90
9209;DHT22;4639;48.862;9.188;2023-04-07T08:43:07;12.50;99.90
9209;DHT22;4639;48.862;9.188;2023-04-07T08:45:38;12.20;99.90
9209;DHT22;4639;48.862;9.188;2023-04-07T08:48:19;12.20;99.90
9209;DHT22;4639;48.862;9.188;2023-04-07T08:50:48;12.30;99.90
9209;DHT22;4639;48.862;9.188;2023-04-07T08:53:22;12.30;99.90
9209;DHT22;4639;48.862;9.188;2023-04-07T08:55:48;12.20;99.90
9209;DHT22;4639;48.862;9.188;2023-04-07T08:58:15;12.40;99.90
9209;DHT22;4639;48.862;9.188;2023-04-07T09:00:43;12.50;99.90
9209;DHT22;4639;48.862;9.188;2023-04-07T09:03:10;12.80;99.90
9209;DHT22;4639;48.862;9.188;2023-04-07T09:05:37;13.20;99.90
9209;DHT22;4639;48.862;9.188;2023-04-07T09:08:03;13.50;99.90
9209;DHT22;4639;48.862;9.188;2023-04-07T09:10:28;13.90;99.90
9209;DHT22;4639;48.862;9.188;2023-04-07T09:12:54;14.10;99.90
9209;DHT22;4639;48.862;9.188;2023-04-07T09:15:22;14.40;99.90
9209;DHT22;4639;48.862;9.188;2023-04-07T09:17:51;14.70;99.90
9209;DHT22;4639;48.862;9.188;2023-04-07T09:20:16;15.20;99.90
9209;DHT22;4639;48.862;9.188;2023-04-07T09:22:43;15.60;99.90
9209;DHT22;4639;48.862;9.188;2023-04-07T09:25:23;16.00;99.90
9209;DHT22;4639;48.862;9.188;2023-04-07T09:27:58;16.30;99.90
9209;DHT22;4639;48.862;9.188;2023-04-07T09:30:29;16.60;99.90
9209;DHT22;4639;48.862;9.188;2023-04-07T09:33:02;16.90;99.90
9209;DHT22;4639;48.862;9.188;2023-04-07T09:35:27;16.30;99.90
9209;DHT22;4639;48.862;9.188;2023-04-07T09:38:05;15.80;99.90
9209;DHT22;4639;48.862;9.188;2023-04-07T09:40:30;15.10;99.90
9209;DHT22;4639;48.862;9.188;2023-04-07T09:42:56;14.50;99.90
9209;DHT22;4639;48.862;9.188;2023-04-07T09:45:32;14.30;99.90
9209;DHT22;4639;48.862;9.188;2023-04-07T09:47:59;14.50;99.90
9209;DHT22;4639;48.862;9.188;2023-04-07T09:50:34;15.10;99.90
9209;DHT22;4639;48.862;9.188;2023-04-07T09:53:00;15.80;99.90
9209;DHT22;4639;48.862;9.188;2023-04-07T09:55:27;16.00;99.90
9209;DHT22;4639;48.862;9.188;2023-04-07T09:57:53;16.00;99.90
9209;DHT22;4639;48.862;9.188;2023-04-07T10:00:23;15.70;99.90
9209;DHT22;4639;48.862;9.188;2023-04-07T10:02:49;15.50;99.90
9209;DHT22;4639;48.862;9.188;2023-04-07T10:05:16;15.30;99.90
9209;DHT22;4639;48.862;9.188;2023-04-07T10:07:42;15.10;99.90
9209;DHT22;4639;48.862;9.188;2023-04-07T10:10:08;15.00;99.90
9209;DHT22;4639;48.862;9.188;2023-04-07T10:12:36;14.60;99.90
9209;DHT22;4639;48.862;9.188;2023-04-07T10:15:02;14.40;99.90
9209;DHT22;4639;48.862;9.188;2023-04-07T10:17:28;14.80;99.90
9209;DHT22;4639;48.862;9.188;2023-04-07T10:19:57;15.20;99.90
9209;DHT22;4639;48.862;9.188;2023-04-07T10:22:24;16.00;99.90
9209;DHT22;4639;48.862;9.188;2023-04-07T10:25:01;16.70;99.90
9209;DHT22;4639;48.862;9.188;2023-04-07T10:27:58;17.10;99.90
9209;DHT22;4639;48.862;9.188;2023-04-07T10:30:25;17.50;99.90
9209;DHT22;4639;48.862;9.188;2023-04-07T10:32:53;18.00;99.90
9209;DHT22;4639;48.862;9.188;2023-04-07T10:35:22;18.40;99.90
9209;DHT22;4639;48.862;9.188;2023-04-07T10:40:32;17.90;99.90
9209;DHT22;4639;48.862;9.188;2023-04-07T10:42:58;17.70;99.90
9209;DHT22;4639;48.862;9.188;2023-04-07T10:48:16;16.60;99.90
9209;DHT22;4639;48.862;9.188;2023-04-07T10:50:44;16.30;99.90
9209;DHT22;4639;48.862;9.188;2023-04-07T10:53:11;16.20;99.90
9209;DHT22;4639;48.862;9.188;2023-04-07T10:55:41;15.80;99.90
9209;DHT22;4639;48.862;9.188;2023-04-07T10:58:16;15.40;99.90
9209;DHT22;4639;48.862;9.188;2023-04-07T11:01:16;14.80;99.90
9209;DHT22;4639;48.862;9.188;2023-04-07T11:03:36;14.80;99.90
9209;DHT22;4639;48.862;9.188;2023-04-07T11:06:12;14.50;99.90
9209;DHT22;4639;48.862;9.188;2023-04-07T11:08:46;14.40;99.90
9209;DHT22;4639;48.862;9.188;2023-04-07T11:11:13;14.30;99.90
9209;DHT22;4639;48.862;9.188;2023-04-07T11:13:49;14.40;99.90
9209;DHT22;4639;48.862;9.188;2023-04-07T11:16:17;14.20;99.90
9209;DHT22;4639;48.862;9.188;2023-04-07T11:18:45;14.10;99.90
9209;DHT22;4639;48.862;9.188;2023-04-07T11:21:16;13.90;99.90
9209;DHT22;4639;48.862;9.188;2023-04-07T11:23:45;13.80;99.90
9209;DHT22;4639;48.862;9.188;2023-04-07T11:26:12;13.60;99.90
9209;DHT22;4639;48.862;9.188;2023-04-07T11:28:54;13.50;99.90
9209;DHT22;4639;48.862;9.188;2023-04-07T11:31:24;13.50;99.90
9209;DHT22;4639;48.862;9.188;2023-04-07T11:33:55;13.50;99.90
9209;DHT22;4639;48.862;9.188;2023-04-07T11:36:33;13.60;99.90
9209;DHT22;4639;48.862;9.188;2023-04-07T11:39:00;13.60;99.90
9209;DHT22;4639;48.862;9.188;2023-04-07T11:41:28;13.60;99.90
9209;DHT22;4639;48.862;9.188;2023-04-07T11:44:08;13.70;99.90
9209;DHT22;4639;48.862;9.188;2023-04-07T11:46:35;13.80;99.90
9209;DHT22;4639;48.862;9.188;2023-04-07T11:49:09;13.90;99.90
9209;DHT22;4639;48.862;9.188;2023-04-07T11:51:35;14.00;99.90
9209;DHT22;4639;48.862;9.188;2023-04-07T11:54:00;13.90;99.90
9209;DHT22;4639;48.862;9.188;2023-04-07T11:56:26;13.80;99.90
9209;DHT22;4639;48.862;9.188;2023-04-07T11:58:54;13.70;99.90
9209;DHT22;4639;48.862;9.188;2023-04-07T12:01:20;13.70;99.90
9209;DHT22;4639;48.862;9.188;2023-04-07T12:04:00;13.80;99.90
9209;DHT22;4639;48.862;9.188;2023-04-07T12:06:31;13.70;99.90
9209;DHT22;4639;48.862;9.188;2023-04-07T12:09:01;13.50;99.90
9209;DHT22;4639;48.862;9.188;2023-04-07T12:11:27;13.00;99.90
9209;DHT22;4639;48.862;9.188;2023-04-07T12:13:53;12.50;99.90
9209;DHT22;4639;48.862;9.188;2023-04-07T12:16:22;12.10;99.90
9209;DHT22;4639;48.862;9.188;2023-04-07T12:18:48;12.20;99.90
9209;DHT22;4639;48.862;9.188;2023-04-07T12:21:14;12.10;99.90
9209;DHT22;4639;48.862;9.188;2023-04-07T12:23:40;12.20;99.90
9209;DHT22;4639;48.862;9.188;2023-04-07T12:26:06;12.30;99.90
9209;DHT22;4639;48.862;9.188;2023-04-07T12:28:32;12.40;99.90
9209;DHT22;4639;48.862;9.188;2023-04-07T12:30:57;12.50;99.90
9209;DHT22;4639;48.862;9.188;2023-04-07T12:33:23;12.50;99.90
9209;DHT22;4639;48.862;9.188;2023-04-07T12:35:49;12.60;99.90
9209;DHT22;4639;48.862;9.188;2023-04-07T12:38:14;12.80;99.90
9209;DHT22;4639;48.862;9.188;2023-04-07T12:40:40;12.80;99.90
9209;DHT22;4639;48.862;9.188;2023-04-07T12:43:06;12.70;99.90
9209;DHT22;4639;48.862;9.188;2023-04-07T12:45:32;12.60;99.90
9209;DHT22;4639;48.862;9.188;2023-04-07T12:47:57;12.30;99.90
9209;DHT22;4639;48.862;9.188;2023-04-07T12:50:23;12.30;99.90
9209;DHT22;4639;48.862;9.188;2023-04-07T12:52:53;12.20;99.90
9209;DHT22;4639;48.862;9.188;2023-04-07T12:55:19;12.20;99.90
9209;DHT22;4639;48.862;9.188;2023-04-07T12:57:45;12.30;99.90
9209;DHT22;4639;48.862;9.188;2023-04-07T13:00:12;12.20;99.90
9209;DHT22;4639;48.862;9.188;2023-04-07T13:02:38;12.30;99.90
9209;DHT22;4639;48.862;9.188;2023-04-07T13:05:07;12.40;99.90
9209;DHT22;4639;48.862;9.188;2023-04-07T13:07:32;12.70;99.90
9209;DHT22;4639;48.862;9.188;2023-04-07T13:10:00;13.00;99.90
9209;DHT22;4639;48.862;9.188;2023-04-07T13:12:26;13.10;99.90
9209;DHT22;4639;48.862;9.188;2023-04-07T13:14:52;13.30;99.90
9209;DHT22;4639;48.862;9.188;2023-04-07T13:17:18;13.50;99.90
9209;DHT22;4639;48.862;9.188;2023-04-07T13:19:43;13.50;99.90
9209;DHT22;4639;48.862;9.188;2023-04-07T13:22:11;13.50;99.90
9209;DHT22;4639;48.862;9.188;2023-04-07T13:24:37;13.50;99.90
9209;DHT22;4639;48.862;9.188;2023-04-07T13:27:10;13.60;99.90
9209;DHT22;4639;48.862;9.188;2023-04-07T13:29:36;13.60;99.90
9209;DHT22;4639;48.862;9.188;2023-04-07T13:32:08;13.70;99.90
9209;DHT22;4639;48.862;9.188;2023-04-07T13:34:38;13.70;99.90
9209;DHT22;4639;48.862;9.188;2023-04-07T13:37:03;13.50;99.90
9209;DHT22;4639;48.862;9.188;2023-04-07T13:39:30;13.40;99.90
9209;DHT22;4639;48.862;9.188;2023-04-07T13:41:56;13.50;99.90
9209;DHT22;4639;48.862;9.188;2023-04-07T13:44:22;13.70;99.90
9209;DHT22;4639;48.862;9.188;2023-04-07T13:46:48;13.70;99.90
9209;DHT22;4639;48.862;9.188;2023-04-07T13:49:14;13.60;99.90
9209;DHT22;4639;48.862;9.188;2023-04-07T13:51:39;13.60;99.90
9209;DHT22;4639;48.862;9.188;2023-04-07T13:54:05;13.70;99.90
9209;DHT22;4639;48.862;9.188;2023-04-07T13:56:32;13.70;99.90
9209;DHT22;4639;48.862;9.188;2023-04-07T13:59:00;13.80;99.90
9209;DHT22;4639;48.862;9.188;2023-04-07T14:01:25;13.70;99.90
9209;DHT22;4639;48.862;9.188;2023-04-07T14:03:51;13.80;99.90
9209;DHT22;4639;48.862;9.188;2023-04-07T14:06:17;13.80;99.90
9209;DHT22;4639;48.862;9.188;2023-04-07T14:08:56;13.80;99.90
9209;DHT22;4639;48.862;9.188;2023-04-07T14:11:25;13.80;99.90
9209;DHT22;4639;48.862;9.188;2023-04-07T14:13:51;13.90;99.90
9209;DHT22;4639;48.862;9.188;2023-04-07T14:16:17;13.70;99.90
9209;DHT22;4639;48.862;9.188;2023-04-07T14:18:43;13.70;99.90
9209;DHT22;4639;48.862;9.188;2023-04-07T14:21:09;13.70;99.90
9209;DHT22;4639;48.862;9.188;2023-04-07T14:23:36;13.70;99.90
9209;DHT22;4639;48.862;9.188;2023-04-07T14:26:02;13.60;99.90
9209;DHT22;4639;48.862;9.188;2023-04-07T14:28:28;13.50;99.90
9209;DHT22;4639;48.862;9.188;2023-04-07T14:30:53;13.50;99.90
9209;DHT22;4639;48.862;9.188;2023-04-07T14:33:22;13.70;99.90
9209;DHT22;4639;48.862;9.188;2023-04-07T14:35:48;13.60;99.90
9209;DHT22;4639;48.862;9.188;2023-04-07T14:38:14;13.50;99.90
9209;DHT22;4639;48.862;9.188;2023-04-07T14:40:40;13.50;99.90
9209;DHT22;4639;48.862;9.188;2023-04-07T14:43:06;13.50;99.90
9209;DHT22;4639;48.862;9.188;2023-04-07T14:45:32;13.50;99.90
9209;DHT22;4639;48.862;9.188;2023-04-07T14:47:59;13.50;99.90
9209;DHT22;4639;48.862;9.188;2023-04-07T14:50:25;13.50;99.90
9209;DHT22;4639;48.862;9.188;2023-04-07T14:52:50;13.60;99.90
9209;DHT22;4639;48.862;9.188;2023-04-07T14:55:16;13.60;99.90
9209;DHT22;4639;48.862;9.188;2023-04-07T14:57:42;13.60;99.90
9209;DHT22;4639;48.862;9.188;2023-04-07T15:00:08;13.50;99.90
9209;DHT22;4639;48.862;9.188;2023-04-07T15:02:34;13.40;99.90
9209;DHT22;4639;48.862;9.188;2023-04-07T15:05:01;13.40;99.90
9209;DHT22;4639;48.862;9.188;2023-04-07T15:07:27;13.40;99.90
9209;DHT22;4639;48.862;9.188;2023-04-07T15:09:52;13.50;99.90
9209;DHT22;4639;48.862;9.188;2023-04-07T15:12:18;13.60;99.90
9209;DHT22;4639;48.862;9.188;2023-04-07T15:14:44;13.60;99.90
9209;DHT22;4639;48.862;9.188;2023-04-07T15:17:15;13.60;99.90
9209;DHT22;4639;48.862;9.188;2023-04-07T15:19:41;13.70;99.90
9209;DHT22;4639;48.862;9.188;2023-04-07T15:22:06;13.60;99.90
9209;DHT22;4639;48.862;9.188;2023-04-07T15:24:32;13.40;99.90
9209;DHT22;4639;48.862;9.188;2023-04-07T15:26:58;13.40;99.90
9209;DHT22;4639;48.862;9.188;2023-04-07T15:29:23;13.50;99.90
9209;DHT22;4639;48.862;9.188;2023-04-07T15:31:49;13.60;99.90
9209;DHT22;4639;48.862;9.188;2023-04-07T15:34:14;13.70;99.90
9209;DHT22;4639;48.862;9.188;2023-04-07T15:36:40;13.60;99.90
9209;DHT22;4639;48.862;9.188;2023-04-07T15:39:05;13.80;99.90
9209;DHT22;4639;48.862;9.188;2023-04-07T15:41:32;13.80;99.90
9209;DHT22;4639;48.862;9.188;2023-04-07T15:44:02;13.80;99.90
9209;DHT22;4639;48.862;9.188;2023-04-07T15:46:28;13.90;99.90
9209;DHT22;4639;48.862;9.188;2023-04-07T15:48:53;13.90;99.90
9209;DHT22;4639;48.862;9.188;2023-04-07T15:51:19;13.90;99.90
9209;DHT22;4639;48.862;9.188;2023-04-07T15:53:45;13.80;99.90
9209;DHT22;4639;48.862;9.188;2023-04-07T15:56:11;13.70;99.90
9209;DHT22;4639;48.862;9.188;2023-04-07T15:58:36;13.70;99.90
9209;DHT22;4639;48.862;9.188;2023-04-07T16:01:02;13.60;99.90
9209;DHT22;4639;48.862;9.188;2023-04-07T16:03:29;13.50;99.90
9209;DHT22;4639;48.862;9.188;2023-04-07T16:05:56;13.40;99.90
9209;DHT22;4639;48.862;9.188;2023-04-07T16:08:22;13.30;99.90
9209;DHT22;4639;48.862;9.188;2023-04-07T16:10:50;13.40;99.90
9209;DHT22;4639;48.862;9.188;2023-04-07T16:13:16;13.40;99.90
9209;DHT22;4639;48.862;9.188;2023-04-07T16:15:42;13.40;99.90
9209;DHT22;4639;48.862;9.188;2023-04-07T16:18:09;13.40;99.90
9209;DHT22;4639;48.862;9.188;2023-04-07T16:20:34;13.40;99.90
9209;DHT22;4639;48.862;9.188;2023-04-07T16:23:00;13.20;99.90
9209;DHT22;4639;48.862;9.188;2023-04-07T16:25:26;13.10;99.90
9209;DHT22;4639;48.862;9.188;2023-04-07T16:27:52;13.00;99.90